• Join FlightAware (Why Join?)
  • Login
  • US Flag 
01:39PM EDT


 

Airport Tracker/Info


-or-


 

Live Flight TrackerFlight Track Log ✈ DAL6055 ✈ 12-May-2013 ✈ KSDF - KDTW

Flight Track Log - Related Links

Times and Time Zones

All times are in EDT time to prevent confusion due to time zone crossing. See the DAL6055 flight status page for this flight to view local times or setup timezone preferences in your user account.

Time Position Orientation Groundspeed Altitude Reporting Facility
EDT Latitude Longitude Course Direction KTS MPH feet Rate Location/Type
11:58AM 38.2333 -85.7500 North 185 213 3,000  Level Louisville TRACON
11:59AM 38.2864 -85.7636 349° North 226 260 5,000 2,160 Climbing Indianapolis Center
12:00PM 38.3442 -85.7925 339° North 224 258 7,500 2,340 Climbing Indianapolis Center
12:01PM 38.4067 -85.8250 338° Northwest 236 272 9,900 1,860 Climbing Indianapolis Center
12:02PM 38.4781 -85.8167 North 276 318 11,400 1,440 Climbing Indianapolis Center
12:03PM 38.5636 -85.7383 36° Northeast 317 365 12,900 1,440 Climbing Indianapolis Center
12:04PM 38.3746 -85.9833 North  Level FlightAware Approximate
12:04PM 38.6314 -85.6767 35° Northeast 335 386 14,400  Level Indianapolis Center
12:05PM 38.7078 -85.6075 35° Northeast 338 389 16,100 1,620 Climbing Indianapolis Center
12:06PM 38.8014 -85.5236 35° Northeast 345 397 17,800 1,560 Climbing Indianapolis Center
12:07PM 38.8817 -85.4500 36° Northeast 356 410 19,400 1,620 Climbing Indianapolis Center
12:08PM 38.9611 -85.3767 36° Northeast 354 407 21,200 1,560 Climbing Indianapolis Center
12:09PM 39.0425 -85.3036 35° Northeast 358 412 22,700 1,440 Climbing Indianapolis Center
12:10PM 39.1231 -85.2278 36° Northeast 361 415 24,200 1,500 Climbing Indianapolis Center
12:11PM 39.2061 -85.1539 35° Northeast 363 418 25,800 1,260 Climbing Indianapolis Center
12:13PM 39.2878 -85.0775 36° Northeast 365 420 26,900 540 Climbing Indianapolis Center
12:14PM 39.3928 -84.9792 36° Northeast 386 444 27,000  Climbing Indianapolis Center
12:15PM 39.4900 -84.8900 35° Northeast 422 486 27,000 -60 Level Indianapolis Center
12:16PM 39.5906 -84.7969 35° Northeast 440 506 26,900  Descending Indianapolis Center
12:17PM 39.6969 -84.7128 31° Northeast 443 510 27,000  Climbing Indianapolis Center
12:18PM 39.8111 -84.6764 14° North 417 480 27,000 -60 Level Indianapolis Center
12:19PM 39.9256 -84.6447 12° North 416 479 26,900 -60 Descending Indianapolis Center
12:20PM 40.0406 -84.6136 12° North 416 479 26,900  Level Indianapolis Center
12:21PM 40.1542 -84.5819 12° North 412 474 27,000 -300 Climbing Indianapolis Center
12:22PM 40.2689 -84.5489 12° North 416 479 26,300 -1,200 Descending Indianapolis Center
12:23PM 40.3769 -84.5178 12° North 398 458 24,600 -1,500 Descending Indianapolis Center
12:24PM 40.4800 -84.4894 12° North 376 433 23,300 -840 Descending Indianapolis Center
12:25PM 40.5833 -84.4603 12° North 377 434 22,900 -180 Descending Indianapolis Center
12:26PM 40.7075 -84.4253 12° North 387 445 23,000  Climbing Indianapolis Center
12:27PM 40.8153 -84.4164 North 383 441 23,000 -60 Level Indianapolis Center
12:28PM 40.9219 -84.4197 359° North 382 440 22,900 -1,020 Descending Cleveland Center
12:29PM 41.0239 -84.4228 359° North 377 434 21,000 -1,980 Descending Cleveland Center
12:30PM 41.1114 -84.4281 357° North 346 398 19,000 -1,980 Descending Cleveland Center
12:31PM 41.2031 -84.4306 359° North 327 376 17,100 -1,920 Descending Cleveland Center
12:32PM 41.2958 -84.4031 13° North 327 376 15,200 -2,040 Descending Cleveland Center
12:33PM 41.3853 -84.3447 26° Northeast 338 389 13,100 -1,620 Descending Cleveland Center
12:34PM 41.4728 -84.2831 28° Northeast 343 395 12,000 -540 Descending Cleveland Center
12:35PM 41.5494 -84.2292 28° Northeast 343 395 12,100  Climbing Cleveland Center
12:36PM 41.6392 -84.1675 27° Northeast 348 400 12,000 -120 Descending Cleveland Center
12:36PM 41.6922 -84.1344 25° Northeast 361 415 12,000  Level Cleveland Center
12:37PM 41.7392 -84.1008 28° Northeast 361 415 12,000  Level Cleveland Center
12:38PM 41.8139 -84.0464 29° Northeast 359 413 12,000  Level Cleveland Center
12:39PM 41.8836 -83.9414 48° Northeast 354 407 12,000  Level Cleveland Center
12:40PM 41.9453 -83.8328 53° Northeast 354 407 12,000 -300 Level Cleveland Center
12:41PM 42.0125 -83.7356 47° Northeast 360 414 11,500 -600 Descending Cleveland Center
12:42PM 42.0689 -83.6544 47° Northeast 328 377 10,900 -300 Descending Cleveland Center
12:43PM 42.1164 -83.5897 45° Northeast 278 320 10,900  Level Cleveland Center
12:44PM 42.1783 -83.5422 30° Northeast 236 272 11,000  Climbing Cleveland Center
12:45PM 42.2375 -83.5056 25° Northeast 230 265 10,900 -600 Descending Cleveland Center
12:46PM 42.2947 -83.4661 27° Northeast 222 255 9,800 -1,020 Descending Cleveland Center
12:47PM 42.3561 -83.4353 20° North 175 201 8,800 -1,140 Descending Cleveland Center
12:48PM 42.4067 -83.4094 21° North 201 231 7,400 -1,260 Descending Cleveland Center
12:49PM 42.4533 -83.3750 29° Northeast 202 232 6,300 -1,140 Descending Cleveland Center
12:50PM 42.4697 -83.3081 72° East 223 257 5,200 -960 Descending Cleveland Center
12:51PM 42.4247 -83.2611 142° Southeast 192 221 4,400 -660 Descending Cleveland Center
12:52PM 42.3686 -83.2614 180° South 190 219 3,900 -540 Descending Cleveland Center